Time;durP1;ratioP1;P1;durP2;ratioP2;P2;SDS_P1;SDS_P2;PMS_P1;PMS_P2;Temp;Humidity;BMP_temperature;BMP_pressure;BME280_temperature;BME280_humidity;BME280_pressure;Samples;Min_cycle;Max_cycle;Signal;HPM_P1;HPM_P2
2023/04/23 00:01:57;;;;;;;;;;;;;;;;;;2222817;58;27579;-16
2023/04/23 00:04:27;;;;;;;;;;;;;;;;;;2223849;58;1828;-16
2023/04/23 00:06:58;;;;;;;;;;;;;;;;;;2221931;66;2014;-19
2023/04/23 00:09:30;;;;;;;;;;;;;;;;;;2222439;66;2004;-16
2023/04/23 00:12:06;;;;;;;;;;;;;;;;;;2225123;66;2133;-16
2023/04/23 00:14:36;;;;;;;;;;;;;;;;;;2224949;66;2328;-16
2023/04/23 00:17:06;;;;;;;;;;;;;;;;;;2222045;63;33173;-15
2023/04/23 00:19:36;;;;;;;;;;;;;;;;;;2225261;66;2545;-16
2023/04/23 00:22:07;;;;;;;;;;;;;;;;;;2221291;58;2890;-16
2023/04/23 00:24:37;;;;;;;;;;;;;;;;;;2222910;66;2544;-15
2023/04/23 00:27:08;;;;;;;;;;;;;;;;;;2224472;63;3034;-16
2023/04/23 00:29:38;;;;;;;;;;;;;;;;;;2225879;58;2427;-15
2023/04/23 00:32:08;;;;;;;;;;;;;;;;;;2222193;58;32463;-17
2023/04/23 00:34:39;;;;;;;;;;;;;;;;;;2225807;58;2006;-15
2023/04/23 00:37:09;;;;;;;;;;;;;;;;;;2225729;66;2014;-17
2023/04/23 00:39:40;;;;;;;;;;;;;;;;;;2226295;66;1983;-16
2023/04/23 00:42:13;;;;;;;;;;;;;;;;;;2225363;66;2505;-17
2023/04/23 00:44:43;;;;;;;;;;;;;;;;;;2225733;66;1966;-16
2023/04/23 00:47:13;;;;;;;;;;;;;;;;;;2224495;66;3008;-17
2023/04/23 00:49:44;;;;;;;;;;;;;;;;;;2223928;58;2460;-16
2023/04/23 00:52:14;;;;;;;;;;;;;;;;;;2217615;58;2509;-17
2023/04/23 00:54:44;;;;;;;;;;;;;;;;;;2223967;58;2693;-17
2023/04/23 00:57:15;;;;;;;;;;;;;;;;;;2221991;66;2165;-18
2023/04/23 00:59:46;;;;;;;;;;;;;;;;;;2226320;66;1964;-19
2023/04/23 01:02:16;;;;;;;;;;;;;;;;;;2222578;58;16875;-19
2023/04/23 01:04:50;;;;;;;;;;;;;;;;;;2225278;58;2497;-19
2023/04/23 01:07:20;;;;;;;;;;;;;;;;;;2224751;58;2384;-19
2023/04/23 01:09:50;;;;;;;;;;;;;;;;;;2225906;66;3142;-18
2023/04/23 01:12:21;;;;;;;;;;;;;;;;;;2225039;58;2319;-17
2023/04/23 01:14:51;;;;;;;;;;;;;;;;;;2225451;66;1986;-17
2023/04/23 01:17:25;;;;;;;;;;;;;;;;;;2221397;58;24821;-17
2023/04/23 01:19:55;;;;;;;;;;;;;;;;;;2225615;58;1794;-18
2023/04/23 01:22:26;;;;;;;;;;;;;;;;;;2225040;58;2377;-17
2023/04/23 01:24:56;;;;;;;;;;;;;;;;;;2225067;59;2069;-20
2023/04/23 01:27:27;;;;;;;;;;;;;;;;;;2225356;58;2458;-18
2023/04/23 01:30:02;;;;;;;;;;;;;;;;;;2224685;58;2362;-18
2023/04/23 01:32:33;;;;;;;;;;;;;;;;;;2224290;58;15292;-17
2023/04/23 01:35:04;;;;;;;;;;;;;;;;;;2220807;59;2614;-17
2023/04/23 01:37:35;;;;;;;;;;;;;;;;;;2225184;58;1917;-16
2023/04/23 01:40:07;;;;;;;;;;;;;;;;;;2225423;66;1906;-18
2023/04/23 01:42:38;;;;;;;;;;;;;;;;;;2225832;59;1978;-17
2023/04/23 01:45:08;;;;;;;;;;;;;;;;;;2223491;58;3017;-18
2023/04/23 01:47:39;;;;;;;;;;;;;;;;;;2224409;66;42738;-18
2023/04/23 01:50:10;;;;;;;;;;;;;;;;;;2221643;66;2180;-18
2023/04/23 01:52:40;;;;;;;;;;;;;;;;;;2226658;58;2240;-18
2023/04/23 01:55:11;;;;;;;;;;;;;;;;;;2223938;58;2076;-18
2023/04/23 01:57:41;;;;;;;;;;;;;;;;;;2225092;66;2141;-18
2023/04/23 02:00:13;;;;;;;;;;;;;;;;;;2223509;58;2201;-17
2023/04/23 02:02:43;;;;;;;;;;;;;;;;;;2221811;58;21867;-19
2023/04/23 02:05:15;;;;;;;;;;;;;;;;;;2222297;58;2227;-18
2023/04/23 02:07:49;;;;;;;;;;;;;;;;;;2225094;66;2485;-18
2023/04/23 02:10:20;;;;;;;;;;;;;;;;;;2224901;66;2709;-20
2023/04/23 02:12:50;;;;;;;;;;;;;;;;;;2225383;66;2066;-17
2023/04/23 02:15:20;;;;;;;;;;;;;;;;;;2222355;66;35520;-17
2023/04/23 02:17:51;;;;;;;;;;;;;;;;;;2224072;66;2110;-18
2023/04/23 02:20:21;;;;;;;;;;;;;;;;;;2224495;58;2437;-18
2023/04/23 02:22:51;;;;;;;;;;;;;;;;;;2224821;66;2551;-18
2023/04/23 02:25:21;;;;;;;;;;;;;;;;;;2224489;66;2132;-18
2023/04/23 02:27:52;;;;;;;;;;;;;;;;;;2224805;58;2164;-19
2023/04/23 02:30:23;;;;;;;;;;;;;;;;;;2223653;58;17855;-17
2023/04/23 02:32:55;;;;;;;;;;;;;;;;;;2225113;58;2034;-18
2023/04/23 02:35:25;;;;;;;;;;;;;;;;;;2221742;66;2367;-18
2023/04/23 02:37:56;;;;;;;;;;;;;;;;;;2222450;58;2018;-20
2023/04/23 02:40:26;;;;;;;;;;;;;;;;;;2223719;58;2572;-19
2023/04/23 02:42:57;;;;;;;;;;;;;;;;;;2215150;66;2685;-17
2023/04/23 02:45:27;;;;;;;;;;;;;;;;;;2219180;58;21923;-20
2023/04/23 02:47:57;;;;;;;;;;;;;;;;;;2221083;58;2026;-17
2023/04/23 02:50:28;;;;;;;;;;;;;;;;;;2219109;66;2261;-18
2023/04/23 02:52:58;;;;;;;;;;;;;;;;;;2222306;58;2124;-18
2023/04/23 02:55:28;;;;;;;;;;;;;;;;;;2223263;58;2004;-18
2023/04/23 02:57:59;;;;;;;;;;;;;;;;;;2221088;58;1774;-18
2023/04/23 03:00:30;;;;;;;;;;;;;;;;;;2223958;58;17576;-19
2023/04/23 03:03:00;;;;;;;;;;;;;;;;;;2220460;58;2441;-19
2023/04/23 03:05:31;;;;;;;;;;;;;;;;;;2221336;58;2757;-18
2023/04/23 03:08:01;;;;;;;;;;;;;;;;;;2223645;58;2219;-17
2023/04/23 03:10:31;;;;;;;;;;;;;;;;;;2224299;58;2424;-18
2023/04/23 03:13:02;;;;;;;;;;;;;;;;;;2225314;66;2167;-17
2023/04/23 03:15:32;;;;;;;;;;;;;;;;;;2224336;58;2554;-19
2023/04/23 03:18:03;;;;;;;;;;;;;;;;;;2227168;58;2234;-19
2023/04/23 03:20:34;;;;;;;;;;;;;;;;;;2224299;58;1795;-19
2023/04/23 03:23:05;;;;;;;;;;;;;;;;;;2224224;58;2240;-19
2023/04/23 03:25:35;;;;;;;;;;;;;;;;;;2221739;66;2652;-18
2023/04/23 03:28:06;;;;;;;;;;;;;;;;;;2221580;58;2062;-17
2023/04/23 03:30:36;;;;;;;;;;;;;;;;;;2222321;58;49530;-19
2023/04/23 03:33:06;;;;;;;;;;;;;;;;;;2224527;58;2149;-18
2023/04/23 03:35:37;;;;;;;;;;;;;;;;;;2220831;58;2422;-19
2023/04/23 03:38:07;;;;;;;;;;;;;;;;;;2222470;66;1963;-17
2023/04/23 03:40:37;;;;;;;;;;;;;;;;;;2221245;58;2257;-19
2023/04/23 03:43:08;;;;;;;;;;;;;;;;;;2224720;66;2674;-20
2023/04/23 03:45:38;;;;;;;;;;;;;;;;;;2220622;58;69408;-18
2023/04/23 03:48:08;;;;;;;;;;;;;;;;;;2225069;66;2564;-19
2023/04/23 03:50:39;;;;;;;;;;;;;;;;;;2224820;59;2039;-18
2023/04/23 03:53:10;;;;;;;;;;;;;;;;;;2225053;58;2037;-20
2023/04/23 03:55:40;;;;;;;;;;;;;;;;;;2220446;58;3209;-19
2023/04/23 03:58:11;;;;;;;;;;;;;;;;;;2225468;58;2113;-19
2023/04/23 04:00:41;;;;;;;;;;;;;;;;;;2216072;58;74934;-19
2023/04/23 04:03:12;;;;;;;;;;;;;;;;;;2220412;58;2117;-21
2023/04/23 04:05:43;;;;;;;;;;;;;;;;;;2223749;58;1952;-19
2023/04/23 04:08:13;;;;;;;;;;;;;;;;;;2221883;66;2104;-18
2023/04/23 04:10:43;;;;;;;;;;;;;;;;;;2225443;66;2126;-18
2023/04/23 04:13:15;;;;;;;;;;;;;;;;;;2222239;66;2049;-19
2023/04/23 04:15:45;;;;;;;;;;;;;;;;;;2217378;59;21147;-18
2023/04/23 04:18:15;;;;;;;;;;;;;;;;;;2224393;58;2855;-21
2023/04/23 04:20:45;;;;;;;;;;;;;;;;;;2226008;58;2019;-20
2023/04/23 04:23:16;;;;;;;;;;;;;;;;;;2222304;58;2119;-19
2023/04/23 04:25:46;;;;;;;;;;;;;;;;;;2225223;58;1788;-20
2023/04/23 04:28:17;;;;;;;;;;;;;;;;;;2227165;58;2098;-19
2023/04/23 04:30:49;;;;;;;;;;;;;;;;;;2221476;58;2001;-20
2023/04/23 04:33:19;;;;;;;;;;;;;;;;;;2218379;58;2185;-18
2023/04/23 04:35:50;;;;;;;;;;;;;;;;;;2224032;66;2097;-19
2023/04/23 04:38:21;;;;;;;;;;;;;;;;;;2225852;59;2063;-18
2023/04/23 04:40:54;;;;;;;;;;;;;;;;;;2221646;66;2084;-18
2023/04/23 04:43:25;;;;;;;;;;;;;;;;;;2225640;66;2382;-17
2023/04/23 04:45:57;;;;;;;;;;;;;;;;;;2223239;63;14535;-20
2023/04/23 04:48:28;;;;;;;;;;;;;;;;;;2220321;59;2624;-18
2023/04/23 04:50:58;;;;;;;;;;;;;;;;;;2224669;66;2474;-17
2023/04/23 04:53:28;;;;;;;;;;;;;;;;;;2226139;58;2791;-18
2023/04/23 04:55:59;;;;;;;;;;;;;;;;;;2224901;58;2607;-17
2023/04/23 04:58:30;;;;;;;;;;;;;;;;;;2224966;66;2206;-18
2023/04/23 05:01:00;;;;;;;;;;;;;;;;;;2217590;58;20015;-19
2023/04/23 05:03:31;;;;;;;;;;;;;;;;;;2221604;58;2914;-18
2023/04/23 05:06:01;;;;;;;;;;;;;;;;;;2225803;58;2607;-21
2023/04/23 05:08:31;;;;;;;;;;;;;;;;;;2222718;58;2598;-18
2023/04/23 05:11:02;;;;;;;;;;;;;;;;;;2225065;66;2150;-17
2023/04/23 05:13:33;;;;;;;;;;;;;;;;;;2222976;66;2287;-17
2023/04/23 05:16:03;;;;;;;;;;;;;;;;;;2217340;66;41825;-19
2023/04/23 05:18:33;;;;;;;;;;;;;;;;;;2222469;58;3307;-19
2023/04/23 05:21:05;;;;;;;;;;;;;;;;;;2225003;58;2201;-18
2023/04/23 05:23:35;;;;;;;;;;;;;;;;;;2224876;58;2441;-19
2023/04/23 05:26:05;;;;;;;;;;;;;;;;;;2225287;66;3059;-19
2023/04/23 05:28:36;;;;;;;;;;;;;;;;;;2224218;58;2702;-18
2023/04/23 05:31:06;;;;;;;;;;;;;;;;;;2220155;66;2093;-18
2023/04/23 05:33:37;;;;;;;;;;;;;;;;;;2225033;58;2687;-17
2023/04/23 05:36:07;;;;;;;;;;;;;;;;;;2224093;66;2979;-17
2023/04/23 05:38:38;;;;;;;;;;;;;;;;;;2223427;66;2801;-18
2023/04/23 05:41:08;;;;;;;;;;;;;;;;;;2224948;58;2201;-19
2023/04/23 05:43:38;;;;;;;;;;;;;;;;;;2221544;66;3221;-18
2023/04/23 05:46:08;;;;;;;;;;;;;;;;;;2220576;59;23831;-18
2023/04/23 05:48:42;;;;;;;;;;;;;;;;;;2221367;66;3097;-18
2023/04/23 05:51:12;;;;;;;;;;;;;;;;;;2220860;66;2548;-17
2023/04/23 05:53:42;;;;;;;;;;;;;;;;;;2223606;58;3043;-18
2023/04/23 05:56:12;;;;;;;;;;;;;;;;;;2223428;58;2462;-20
2023/04/23 05:58:43;;;;;;;;;;;;;;;;;;2225502;66;2879;-17
2023/04/23 06:01:13;;;;;;;;;;;;;;;;;;2219719;58;2093;-18
2023/04/23 06:03:44;;;;;;;;;;;;;;;;;;2224565;58;3133;-18
2023/04/23 06:06:14;;;;;;;;;;;;;;;;;;2224833;58;2122;-18
2023/04/23 06:08:44;;;;;;;;;;;;;;;;;;2227840;66;3220;-19
2023/04/23 06:11:18;;;;;;;;;;;;;;;;;;2223436;66;2817;-17
2023/04/23 06:13:48;;;;;;;;;;;;;;;;;;2220939;66;2672;-18
2023/04/23 06:16:19;;;;;;;;;;;;;;;;;;2222591;59;43385;-26
2023/04/23 06:18:49;;;;;;;;;;;;;;;;;;2225792;66;2329;-18
2023/04/23 06:21:19;;;;;;;;;;;;;;;;;;2217917;58;2679;-17
2023/04/23 06:23:50;;;;;;;;;;;;;;;;;;2223671;66;2867;-17
2023/04/23 06:26:20;;;;;;;;;;;;;;;;;;2221818;66;2885;-18
2023/04/23 06:28:50;;;;;;;;;;;;;;;;;;2225011;58;2847;-18
2023/04/23 06:31:20;;;;;;;;;;;;;;;;;;2223177;58;20736;-19
2023/04/23 06:33:50;;;;;;;;;;;;;;;;;;2225635;58;2566;-17
2023/04/23 06:36:21;;;;;;;;;;;;;;;;;;2222136;66;3124;-18
2023/04/23 06:38:57;;;;;;;;;;;;;;;;;;2227837;66;2454;-17
2023/04/23 06:41:27;;;;;;;;;;;;;;;;;;2225277;66;2642;-17
2023/04/23 06:44:00;;;;;;;;;;;;;;;;;;2223806;66;2143;-17
2023/04/23 06:46:31;;;;;;;;;;;;;;;;;;2220355;66;29384;-18
2023/04/23 06:49:01;;;;;;;;;;;;;;;;;;2224935;66;2161;-19
2023/04/23 06:51:31;;;;;;;;;;;;;;;;;;2224106;58;2150;-19
2023/04/23 06:54:01;;;;;;;;;;;;;;;;;;2223079;58;2248;-18
2023/04/23 06:56:35;;;;;;;;;;;;;;;;;;2222784;58;3012;-17
2023/04/23 06:59:05;;;;;;;;;;;;;;;;;;2224349;58;2712;-19
2023/04/23 07:01:35;;;;;;;;;;;;;;;;;;2222061;58;17511;-18
2023/04/23 07:04:06;;;;;;;;;;;;;;;;;;2223824;58;2659;-18
2023/04/23 07:06:42;;;;;;;;;;;;;;;;;;2223384;59;2953;-19
2023/04/23 07:09:12;;;;;;;;;;;;;;;;;;2223947;66;2933;-19
2023/04/23 07:11:42;;;;;;;;;;;;;;;;;;2221803;66;2829;-18
2023/04/23 07:14:12;;;;;;;;;;;;;;;;;;2219705;58;2796;-19
2023/04/23 07:16:43;;;;;;;;;;;;;;;;;;2214940;66;21249;-17
2023/04/23 07:19:13;;;;;;;;;;;;;;;;;;2223891;59;2431;-18
2023/04/23 07:21:43;;;;;;;;;;;;;;;;;;2224432;58;2904;-18
2023/04/23 07:24:14;;;;;;;;;;;;;;;;;;2223563;66;2609;-17
2023/04/23 07:26:44;;;;;;;;;;;;;;;;;;2223967;66;2808;-18
2023/04/23 07:29:14;;;;;;;;;;;;;;;;;;2224194;66;2901;-18
2023/04/23 07:31:45;;;;;;;;;;;;;;;;;;2222257;58;19572;-18
2023/04/23 07:34:15;;;;;;;;;;;;;;;;;;2222226;58;2525;-18
2023/04/23 07:36:45;;;;;;;;;;;;;;;;;;2222107;58;2810;-17
2023/04/23 07:39:15;;;;;;;;;;;;;;;;;;2224604;58;2131;-17
2023/04/23 07:41:46;;;;;;;;;;;;;;;;;;2223922;58;4002;-19
2023/04/23 07:44:16;;;;;;;;;;;;;;;;;;2223334;58;2459;-18
2023/04/23 07:46:47;;;;;;;;;;;;;;;;;;2218698;58;13108;-18
2023/04/23 07:49:17;;;;;;;;;;;;;;;;;;2225208;58;2284;-17
2023/04/23 07:51:47;;;;;;;;;;;;;;;;;;2224647;58;2239;-17
2023/04/23 07:54:18;;;;;;;;;;;;;;;;;;2223298;58;2711;-17
2023/04/23 07:56:49;;;;;;;;;;;;;;;;;;2221339;58;3017;-18
2023/04/23 07:59:19;;;;;;;;;;;;;;;;;;2225839;58;2236;-17
2023/04/23 08:01:50;;;;;;;;;;;;;;;;;;2227039;58;2681;-18
2023/04/23 08:04:20;;;;;;;;;;;;;;;;;;2222879;58;2827;-18
2023/04/23 08:06:50;;;;;;;;;;;;;;;;;;2223268;58;3534;-19
2023/04/23 08:09:21;;;;;;;;;;;;;;;;;;2223424;58;2975;-17
2023/04/23 08:11:51;;;;;;;;;;;;;;;;;;2221864;58;2945;-18
2023/04/23 08:14:22;;;;;;;;;;;;;;;;;;2223319;58;2614;-20
2023/04/23 08:16:52;;;;;;;;;;;;;;;;;;2221498;66;13912;-18
2023/04/23 08:19:22;;;;;;;;;;;;;;;;;;2224657;66;2291;-19
2023/04/23 08:21:52;;;;;;;;;;;;;;;;;;2225267;58;3057;-18
2023/04/23 08:24:23;;;;;;;;;;;;;;;;;;2224086;66;2602;-19
2023/04/23 08:26:53;;;;;;;;;;;;;;;;;;2223968;58;2948;-18
2023/04/23 08:29:23;;;;;;;;;;;;;;;;;;2223858;58;2512;-17
2023/04/23 08:31:53;;;;;;;;;;;;;;;;;;2221117;58;12247;-18
2023/04/23 08:34:24;;;;;;;;;;;;;;;;;;2223770;58;2576;-18
2023/04/23 08:36:54;;;;;;;;;;;;;;;;;;2225562;66;2342;-18
2023/04/23 08:39:26;;;;;;;;;;;;;;;;;;2222891;58;2621;-16
2023/04/23 08:42:03;;;;;;;;;;;;;;;;;;2221169;66;2183;-16
2023/04/23 08:44:34;;;;;;;;;;;;;;;;;;2224257;66;2855;-18
2023/04/23 08:47:06;;;;;;;;;;;;;;;;;;2223446;66;2199;-18
2023/04/23 08:49:39;;;;;;;;;;;;;;;;;;2220343;66;3033;-18
2023/04/23 08:52:17;;;;;;;;;;;;;;;;;;2224024;58;3083;-19
2023/04/23 08:54:48;;;;;;;;;;;;;;;;;;2221920;58;2747;-18
2023/04/23 08:57:19;;;;;;;;;;;;;;;;;;2224526;58;2103;-17
2023/04/23 08:59:50;;;;;;;;;;;;;;;;;;2225112;66;2545;-18
2023/04/23 09:02:21;;;;;;;;;;;;;;;;;;2220438;58;34895;-18
2023/04/23 09:04:53;;;;;;;;;;;;;;;;;;2224119;58;2756;-18
2023/04/23 09:07:26;;;;;;;;;;;;;;;;;;2221359;58;2287;-18
2023/04/23 09:09:57;;;;;;;;;;;;;;;;;;2224589;66;2151;-17
2023/04/23 09:12:27;;;;;;;;;;;;;;;;;;2220780;66;2413;-17
2023/04/23 09:14:57;;;;;;;;;;;;;;;;;;2224442;66;2026;-18
2023/04/23 09:17:29;;;;;;;;;;;;;;;;;;2221075;66;14462;-17
2023/04/23 09:19:59;;;;;;;;;;;;;;;;;;2225079;58;2022;-18
2023/04/23 09:22:40;;;;;;;;;;;;;;;;;;2226022;58;2687;-18
2023/04/23 09:25:11;;;;;;;;;;;;;;;;;;2224754;66;2058;-19
2023/04/23 09:27:42;;;;;;;;;;;;;;;;;;2223784;58;2616;-18
2023/04/23 09:30:13;;;;;;;;;;;;;;;;;;2222157;58;2262;-17
2023/04/23 09:32:44;;;;;;;;;;;;;;;;;;2223287;58;2090;-16
2023/04/23 09:35:16;;;;;;;;;;;;;;;;;;2224308;66;2377;-17
2023/04/23 09:37:51;;;;;;;;;;;;;;;;;;2220766;58;2866;-18
2023/04/23 09:40:22;;;;;;;;;;;;;;;;;;2225085;66;2004;-17
2023/04/23 09:42:53;;;;;;;;;;;;;;;;;;2224529;59;2211;-18
2023/04/23 09:45:26;;;;;;;;;;;;;;;;;;2223034;66;15861;-18
2023/04/23 09:48:00;;;;;;;;;;;;;;;;;;2221658;66;2186;-18
2023/04/23 09:50:37;;;;;;;;;;;;;;;;;;2221489;66;2383;-18
2023/04/23 09:53:08;;;;;;;;;;;;;;;;;;2223176;58;3474;-16
2023/04/23 09:55:40;;;;;;;;;;;;;;;;;;2224767;58;2452;-17
2023/04/23 09:58:11;;;;;;;;;;;;;;;;;;2225024;58;3473;-19
2023/04/23 10:00:42;;;;;;;;;;;;;;;;;;2222272;58;16340;-18
2023/04/23 10:03:12;;;;;;;;;;;;;;;;;;2224180;58;2214;-19
2023/04/23 10:05:42;;;;;;;;;;;;;;;;;;2221850;58;2985;-18
2023/04/23 10:08:13;;;;;;;;;;;;;;;;;;2223908;66;2299;-18
2023/04/23 10:10:44;;;;;;;;;;;;;;;;;;2223550;58;2148;-16
2023/04/23 10:13:15;;;;;;;;;;;;;;;;;;2223134;66;2246;-16
2023/04/23 10:15:46;;;;;;;;;;;;;;;;;;2218367;58;14013;-18
2023/04/23 10:18:19;;;;;;;;;;;;;;;;;;2225017;66;2357;-18
2023/04/23 10:20:51;;;;;;;;;;;;;;;;;;2223960;58;2621;-18
2023/04/23 10:23:22;;;;;;;;;;;;;;;;;;2224363;66;2038;-19
2023/04/23 10:25:53;;;;;;;;;;;;;;;;;;2221556;66;2970;-18
2023/04/23 10:28:28;;;;;;;;;;;;;;;;;;2224664;58;2280;-17
2023/04/23 10:30:58;;;;;;;;;;;;;;;;;;2224845;58;2599;-18
2023/04/23 10:33:30;;;;;;;;;;;;;;;;;;2221564;58;2569;-18
2023/04/23 10:36:00;;;;;;;;;;;;;;;;;;2222325;66;2013;-18
2023/04/23 10:38:31;;;;;;;;;;;;;;;;;;2224467;58;3127;-17
2023/04/23 10:41:01;;;;;;;;;;;;;;;;;;2221341;66;2737;-19
2023/04/23 10:43:32;;;;;;;;;;;;;;;;;;2224871;58;2879;-17
2023/04/23 10:46:02;;;;;;;;;;;;;;;;;;2222965;58;16944;-18
2023/04/23 10:48:50;;;;;;;;;;;;;;;;;;2224440;66;2251;-17
2023/04/23 10:51:31;;;;;;;;;;;;;;;;;;2224625;66;2593;-17
2023/04/23 10:54:02;;;;;;;;;;;;;;;;;;2225232;58;2521;-18
2023/04/23 10:56:32;;;;;;;;;;;;;;;;;;2224212;58;2361;-18
2023/04/23 10:59:04;;;;;;;;;;;;;;;;;;2225402;58;2084;-17
2023/04/23 11:01:34;;;;;;;;;;;;;;;;;;2219501;58;13444;-17
2023/04/23 11:04:21;;;;;;;;;;;;;;;;;;2225785;58;2451;-17
2023/04/23 11:06:53;;;;;;;;;;;;;;;;;;2220211;59;2904;-17
2023/04/23 11:09:33;;;;;;;;;;;;;;;;;;2224330;66;2483;-19
2023/04/23 11:12:07;;;;;;;;;;;;;;;;;;2225770;59;2015;-17
2023/04/23 11:14:42;;;;;;;;;;;;;;;;;;2225043;59;2491;-18
2023/04/23 11:17:13;;;;;;;;;;;;;;;;;;2221999;58;13151;-18
2023/04/23 11:20:02;;;;;;;;;;;;;;;;;;2224557;66;2117;-16
2023/04/23 11:22:33;;;;;;;;;;;;;;;;;;2224950;58;2783;-16
2023/04/23 11:25:07;;;;;;;;;;;;;;;;;;2226725;66;2598;-16
2023/04/23 11:27:39;;;;;;;;;;;;;;;;;;2222253;58;2012;-18
2023/04/23 11:30:13;;;;;;;;;;;;;;;;;;2223530;58;2576;-18
2023/04/23 11:32:44;;;;;;;;;;;;;;;;;;2222887;58;18365;-17
2023/04/23 11:35:28;;;;;;;;;;;;;;;;;;2225707;58;2377;-17
2023/04/23 11:37:58;;;;;;;;;;;;;;;;;;2222173;66;2980;-17
2023/04/23 11:40:29;;;;;;;;;;;;;;;;;;2224975;66;2049;-18
2023/04/23 11:43:03;;;;;;;;;;;;;;;;;;2221693;59;1956;-18
2023/04/23 11:45:33;;;;;;;;;;;;;;;;;;2222832;58;13534;-16
2023/04/23 11:48:04;;;;;;;;;;;;;;;;;;2223580;66;2510;-17
2023/04/23 11:50:37;;;;;;;;;;;;;;;;;;2223685;58;2514;-17
2023/04/23 11:53:09;;;;;;;;;;;;;;;;;;2223807;58;2833;-17
2023/04/23 11:55:42;;;;;;;;;;;;;;;;;;2218140;58;2270;-16
2023/04/23 11:58:19;;;;;;;;;;;;;;;;;;2219910;66;1881;-18
2023/04/23 12:00:55;;;;;;;;;;;;;;;;;;2219943;58;14032;-18
2023/04/23 12:03:26;;;;;;;;;;;;;;;;;;2220755;58;2220;-16
2023/04/23 12:05:57;;;;;;;;;;;;;;;;;;2224881;66;3161;-16
2023/04/23 12:08:31;;;;;;;;;;;;;;;;;;2221411;66;2118;-19
2023/04/23 12:11:02;;;;;;;;;;;;;;;;;;2222173;66;2041;-19
2023/04/23 12:13:32;;;;;;;;;;;;;;;;;;2222164;58;2420;-18
2023/04/23 12:16:03;;;;;;;;;;;;;;;;;;2222140;66;14167;-18
2023/04/23 12:18:36;;;;;;;;;;;;;;;;;;2221955;63;2761;-16
2023/04/23 12:21:08;;;;;;;;;;;;;;;;;;2221249;58;2106;-18
2023/04/23 12:23:40;;;;;;;;;;;;;;;;;;2223432;58;2362;-17
2023/04/23 12:26:11;;;;;;;;;;;;;;;;;;2215892;66;2746;-19
2023/04/23 12:28:56;;;;;;;;;;;;;;;;;;2223252;58;2797;-17
2023/04/23 12:31:28;;;;;;;;;;;;;;;;;;2221373;58;14683;-17
2023/04/23 12:34:02;;;;;;;;;;;;;;;;;;2219157;58;3026;-16
2023/04/23 12:36:34;;;;;;;;;;;;;;;;;;2220592;66;2528;-17
2023/04/23 12:39:18;;;;;;;;;;;;;;;;;;2224167;58;2285;-18
2023/04/23 12:41:52;;;;;;;;;;;;;;;;;;2227951;58;2953;-18
2023/04/23 12:44:22;;;;;;;;;;;;;;;;;;2222404;58;2748;-16
2023/04/23 12:47:03;;;;;;;;;;;;;;;;;;2224252;66;3096;-16
2023/04/23 12:49:35;;;;;;;;;;;;;;;;;;2224300;66;2650;-18
2023/04/23 12:52:05;;;;;;;;;;;;;;;;;;2223690;58;2270;-17
2023/04/23 12:54:39;;;;;;;;;;;;;;;;;;2220564;58;3749;-16
2023/04/23 12:57:13;;;;;;;;;;;;;;;;;;2223809;58;2120;-18
2023/04/23 12:59:43;;;;;;;;;;;;;;;;;;2223492;58;2392;-16
2023/04/23 13:02:13;;;;;;;;;;;;;;;;;;2221776;58;17162;-16
2023/04/23 13:04:44;;;;;;;;;;;;;;;;;;2220688;58;2139;-17
2023/04/23 13:07:17;;;;;;;;;;;;;;;;;;2224215;66;2333;-18
2023/04/23 13:09:50;;;;;;;;;;;;;;;;;;2224746;58;2475;-17
2023/04/23 13:12:20;;;;;;;;;;;;;;;;;;2224226;66;2238;-18
2023/04/23 13:14:51;;;;;;;;;;;;;;;;;;2223002;66;2704;-16
2023/04/23 13:17:22;;;;;;;;;;;;;;;;;;2221355;58;23454;-16
2023/04/23 13:19:52;;;;;;;;;;;;;;;;;;2223251;58;3643;-17
2023/04/23 13:22:27;;;;;;;;;;;;;;;;;;2224350;58;2868;-17
2023/04/23 13:24:58;;;;;;;;;;;;;;;;;;2215376;58;2659;-15
2023/04/23 13:27:28;;;;;;;;;;;;;;;;;;2223614;58;2725;-16
2023/04/23 13:29:58;;;;;;;;;;;;;;;;;;2224932;58;2603;-16
2023/04/23 13:32:31;;;;;;;;;;;;;;;;;;2217274;58;14188;-15
2023/04/23 13:35:03;;;;;;;;;;;;;;;;;;2222961;66;3225;-16
2023/04/23 13:37:34;;;;;;;;;;;;;;;;;;2224279;58;2680;-16
2023/04/23 13:40:04;;;;;;;;;;;;;;;;;;2223592;66;2456;-16
2023/04/23 13:42:34;;;;;;;;;;;;;;;;;;2224234;58;2619;-16
2023/04/23 13:45:06;;;;;;;;;;;;;;;;;;2222263;58;2818;-16
2023/04/23 13:47:36;;;;;;;;;;;;;;;;;;2222046;58;15410;-15
2023/04/23 13:50:06;;;;;;;;;;;;;;;;;;2225273;66;2719;-16
2023/04/23 13:52:38;;;;;;;;;;;;;;;;;;2223478;58;2998;-15
2023/04/23 13:55:09;;;;;;;;;;;;;;;;;;2218718;58;3157;-16
2023/04/23 13:57:39;;;;;;;;;;;;;;;;;;2220722;58;2585;-17
2023/04/23 14:00:11;;;;;;;;;;;;;;;;;;2220719;59;2294;-19
2023/04/23 14:02:41;;;;;;;;;;;;;;;;;;2223090;58;15999;-16
2023/04/23 14:05:12;;;;;;;;;;;;;;;;;;2223333;58;1937;-17
2023/04/23 14:07:42;;;;;;;;;;;;;;;;;;2224282;59;2947;-16
2023/04/23 14:10:13;;;;;;;;;;;;;;;;;;2224676;66;2133;-17
2023/04/23 14:12:45;;;;;;;;;;;;;;;;;;2221472;58;2578;-16
2023/04/23 14:15:16;;;;;;;;;;;;;;;;;;2220963;66;2225;-17
2023/04/23 14:17:47;;;;;;;;;;;;;;;;;;2222293;58;27472;-16
2023/04/23 14:20:18;;;;;;;;;;;;;;;;;;2224554;66;2121;-16
2023/04/23 14:22:54;;;;;;;;;;;;;;;;;;2224276;58;2443;-16
2023/04/23 14:25:28;;;;;;;;;;;;;;;;;;2223205;58;2171;-17
2023/04/23 14:28:01;;;;;;;;;;;;;;;;;;2224069;58;2494;-17
2023/04/23 14:30:33;;;;;;;;;;;;;;;;;;2220868;58;24427;-16
2023/04/23 14:33:03;;;;;;;;;;;;;;;;;;2222582;58;4506;-17
2023/04/23 14:35:33;;;;;;;;;;;;;;;;;;2220894;58;2833;-17
2023/04/23 14:38:03;;;;;;;;;;;;;;;;;;2222515;58;3346;-17
2023/04/23 14:40:34;;;;;;;;;;;;;;;;;;2222846;66;2190;-17
2023/04/23 14:43:05;;;;;;;;;;;;;;;;;;2223076;59;3088;-17
2023/04/23 14:45:35;;;;;;;;;;;;;;;;;;2218090;58;15558;-16
2023/04/23 14:48:06;;;;;;;;;;;;;;;;;;2220145;58;3030;-16
2023/04/23 14:50:36;;;;;;;;;;;;;;;;;;2223552;58;3231;-17
2023/04/23 14:53:08;;;;;;;;;;;;;;;;;;2223703;58;2308;-18
2023/04/23 14:55:41;;;;;;;;;;;;;;;;;;2222218;58;3442;-16
2023/04/23 14:58:14;;;;;;;;;;;;;;;;;;2223728;58;3512;-18
2023/04/23 15:00:45;;;;;;;;;;;;;;;;;;2219455;58;13247;-17
2023/04/23 15:03:15;;;;;;;;;;;;;;;;;;2224006;58;2500;-17
2023/04/23 15:05:45;;;;;;;;;;;;;;;;;;2224009;58;2386;-17
2023/04/23 15:08:19;;;;;;;;;;;;;;;;;;2224200;66;3069;-17
2023/04/23 15:10:49;;;;;;;;;;;;;;;;;;2222838;58;2627;-18
2023/04/23 15:13:36;;;;;;;;;;;;;;;;;;2220391;66;3176;-19
2023/04/23 15:16:07;;;;;;;;;;;;;;;;;;2219457;58;25620;-19
2023/04/23 15:18:37;;;;;;;;;;;;;;;;;;2218830;66;2663;-18
2023/04/23 15:21:08;;;;;;;;;;;;;;;;;;2224533;58;2468;-17
2023/04/23 15:23:40;;;;;;;;;;;;;;;;;;2224045;66;2742;-17
2023/04/23 15:26:10;;;;;;;;;;;;;;;;;;2223586;58;2477;-19
2023/04/23 15:28:41;;;;;;;;;;;;;;;;;;2223834;58;2428;-20
2023/04/23 15:31:11;;;;;;;;;;;;;;;;;;2222478;58;12443;-19
2023/04/23 15:33:41;;;;;;;;;;;;;;;;;;2224187;58;2754;-18
2023/04/23 15:36:12;;;;;;;;;;;;;;;;;;2216487;53;2818;-26
2023/04/23 15:38:42;;;;;;;;;;;;;;;;;;2212440;66;2057;-26
2023/04/23 15:41:13;;;;;;;;;;;;;;;;;;2215630;58;2736;-23
2023/04/23 15:43:43;;;;;;;;;;;;;;;;;;2214581;58;3659;-25
2023/04/23 15:46:13;;;;;;;;;;;;;;;;;;2210876;59;13152;-25
2023/04/23 15:48:43;;;;;;;;;;;;;;;;;;2216280;66;2305;-25
2023/04/23 15:51:14;;;;;;;;;;;;;;;;;;2215990;59;2677;-26
2023/04/23 15:53:44;;;;;;;;;;;;;;;;;;2213702;58;2612;-24
2023/04/23 15:56:14;;;;;;;;;;;;;;;;;;2212559;59;2612;-24
2023/04/23 15:58:44;;;;;;;;;;;;;;;;;;2216066;59;2781;-25
2023/04/23 16:01:16;;;;;;;;;;;;;;;;;;2211152;58;12782;-24
2023/04/23 16:03:46;;;;;;;;;;;;;;;;;;2216372;59;2662;-24
2023/04/23 16:06:16;;;;;;;;;;;;;;;;;;2215936;58;2747;-24
2023/04/23 16:08:46;;;;;;;;;;;;;;;;;;2216658;58;2287;-24
2023/04/23 16:11:16;;;;;;;;;;;;;;;;;;2212698;58;2295;-24
2023/04/23 16:13:47;;;;;;;;;;;;;;;;;;2215799;66;2029;-24
2023/04/23 16:16:17;;;;;;;;;;;;;;;;;;2212736;58;2802;-24
2023/04/23 16:18:48;;;;;;;;;;;;;;;;;;2217270;66;3051;-24
2023/04/23 16:21:18;;;;;;;;;;;;;;;;;;2212643;59;2236;-24
2023/04/23 16:23:48;;;;;;;;;;;;;;;;;;2213060;66;2783;-24
2023/04/23 16:26:19;;;;;;;;;;;;;;;;;;2214277;66;3363;-24
2023/04/23 16:28:50;;;;;;;;;;;;;;;;;;2216345;59;3015;-23
2023/04/23 16:31:20;;;;;;;;;;;;;;;;;;2211351;59;13512;-24
2023/04/23 16:33:50;;;;;;;;;;;;;;;;;;2214798;58;2877;-23
2023/04/23 16:36:21;;;;;;;;;;;;;;;;;;2216228;58;2622;-24
2023/04/23 16:38:51;;;;;;;;;;;;;;;;;;2216554;58;2083;-24
2023/04/23 16:41:21;;;;;;;;;;;;;;;;;;2216270;59;2836;-24
2023/04/23 16:43:52;;;;;;;;;;;;;;;;;;2216186;58;2849;-24
2023/04/23 16:46:24;;;;;;;;;;;;;;;;;;2213987;66;18238;-24
2023/04/23 16:48:55;;;;;;;;;;;;;;;;;;2216395;58;2192;-24
2023/04/23 16:51:25;;;;;;;;;;;;;;;;;;2211245;66;2967;-24
2023/04/23 16:53:55;;;;;;;;;;;;;;;;;;2212277;59;2235;-25
2023/04/23 16:56:26;;;;;;;;;;;;;;;;;;2216186;58;2688;-25
2023/04/23 16:58:56;;;;;;;;;;;;;;;;;;2215000;59;3251;-25
2023/04/23 17:01:26;;;;;;;;;;;;;;;;;;2211712;59;17593;-25
2023/04/23 17:03:57;;;;;;;;;;;;;;;;;;2214710;58;2490;-26
2023/04/23 17:06:28;;;;;;;;;;;;;;;;;;2216489;58;2251;-25
2023/04/23 17:08:59;;;;;;;;;;;;;;;;;;2213678;59;2089;-25
2023/04/23 17:11:30;;;;;;;;;;;;;;;;;;2215889;58;2750;-25
2023/04/23 17:14:00;;;;;;;;;;;;;;;;;;2213349;59;2736;-25
2023/04/23 17:16:30;;;;;;;;;;;;;;;;;;2214160;58;13851;-25
2023/04/23 17:19:01;;;;;;;;;;;;;;;;;;2216358;58;2436;-25
2023/04/23 17:21:31;;;;;;;;;;;;;;;;;;2214081;59;3218;-25
2023/04/23 17:24:02;;;;;;;;;;;;;;;;;;2216362;66;2275;-25
2023/04/23 17:26:32;;;;;;;;;;;;;;;;;;2215576;58;2418;-25
2023/04/23 17:29:02;;;;;;;;;;;;;;;;;;2216158;58;2265;-25